Time;durP1;ratioP1;P1;durP2;ratioP2;P2;SDS_P1;SDS_P2;PMS_P1;PMS_P2;Temp;Humidity;BMP_temperature;BMP_pressure;BME280_temperature;BME280_humidity;BME280_pressure;Samples;Min_cycle;Max_cycle;Signal;HPM_P1;HPM_P2
2023/01/02 00:02:17;;;;;;;3.03;2.23;;;15.70;94.20;;;;;;5010039;28;20265;-79
2023/01/02 00:04:42;;;;;;;2.60;2.00;;;15.10;94.00;;;;;;5004125;28;20621;-78
2023/01/02 00:07:08;;;;;;;3.30;2.00;;;15.20;94.50;;;;;;5009940;28;20189;-79
2023/01/02 00:09:34;;;;;;;3.43;1.87;;;15.00;94.50;;;;;;5004400;28;20664;-79
2023/01/02 00:11:59;;;;;;;2.57;2.30;;;15.10;94.60;;;;;;5007120;28;20203;-79
2023/01/02 00:14:25;;;;;;;2.20;2.00;;;15.00;94.90;;;;;;5014368;28;20183;-79
2023/01/02 00:16:50;;;;;;;3.63;2.30;;;15.40;95.20;;;;;;5013655;28;20702;-79
2023/01/02 00:19:16;;;;;;;2.83;2.30;;;14.70;95.20;;;;;;5005182;28;20191;-79
2023/01/02 00:21:41;;;;;;;4.60;2.20;;;15.10;95.50;;;;;;5013555;28;20206;-80
2023/01/02 00:24:07;;;;;;;4.00;2.80;;;15.00;95.60;;;;;;5011096;28;20639;-79
2023/01/02 00:26:32;;;;;;;4.07;2.10;;;14.50;95.90;;;;;;5006495;28;20286;-79
2023/01/02 00:29:00;;;;;;;6.10;2.53;;;15.00;96.10;;;;;;5013500;28;20461;-79
2023/01/02 00:31:25;;;;;;;3.88;1.65;;;14.40;96.20;;;;;;5013803;28;20210;-79
2023/01/02 00:33:51;;;;;;;1.93;1.70;;;14.40;94.60;;;;;;5012394;28;20191;-79
2023/01/02 00:36:16;;;;;;;4.03;2.27;;;14.40;94.60;;;;;;5013289;28;20190;-79
2023/01/02 00:38:42;;;;;;;4.40;2.70;;;14.40;95.20;;;;;;5013338;28;20194;-79
2023/01/02 00:41:08;;;;;;;5.40;3.43;;;14.50;95.60;;;;;;5011567;28;20211;-79
2023/01/02 00:43:34;;;;;;;3.60;2.97;;;14.90;96.90;;;;;;5013096;28;20194;-79
2023/01/02 00:45:59;;;;;;;2.83;2.40;;;14.70;97.20;;;;;;5018213;28;20186;-79
2023/01/02 00:48:24;;;;;;;2.03;1.80;;;14.50;96.90;;;;;;5006633;28;20207;-79
2023/01/02 00:50:50;;;;;;;3.13;2.23;;;14.70;96.20;;;;;;5013399;28;20183;-79
2023/01/02 00:53:16;;;;;;;3.17;2.60;;;14.10;95.70;;;;;;5012768;28;20297;-79
2023/01/02 00:55:43;;;;;;;3.47;2.40;;;14.60;96.60;;;;;;5010290;28;20174;-79
2023/01/02 00:58:09;;;;;;;5.70;2.85;;;14.60;97.00;;;;;;5012163;28;20211;-79
2023/01/02 01:00:34;;;;;;;4.20;2.70;;;14.50;97.10;;;;;;5012475;28;20603;-79
2023/01/02 01:03:00;;;;;;;7.13;2.93;;;14.20;97.30;;;;;;5011078;28;20233;-79
2023/01/02 01:05:27;;;;;;;2.90;2.60;;;14.20;97.70;;;;;;5012224;28;20195;-79
2023/01/02 01:07:56;;;;;;;4.70;3.00;;;13.90;97.70;;;;;;5010892;28;20277;-79
2023/01/02 01:10:23;;;;;;;3.13;2.70;;;14.00;98.30;;;;;;5004871;28;20862;-79
2023/01/02 01:12:49;;;;;;;4.05;2.90;;;14.10;98.80;;;;;;5011545;28;20294;-79
2023/01/02 01:15:15;;;;;;;4.32;3.17;;;13.70;98.90;;;;;;5002865;28;20183;-79
2023/01/02 01:17:41;;;;;;;5.53;3.10;;;13.90;99.10;;;;;;5012068;28;20229;-79
2023/01/02 01:20:07;;;;;;;5.30;3.53;;;13.80;99.40;;;;;;5012442;28;20724;-79
2023/01/02 01:22:32;;;;;;;4.72;3.03;;;13.70;99.50;;;;;;5013342;28;20763;-79
2023/01/02 01:24:59;;;;;;;6.30;3.00;;;13.60;99.60;;;;;;5002755;28;20278;-79
2023/01/02 01:27:24;;;;;;;3.65;2.97;;;13.60;99.90;;;;;;5012317;28;20459;-79
2023/01/02 01:29:50;;;;;;;6.90;3.53;;;13.80;99.90;;;;;;5012249;28;20210;-79
2023/01/02 01:32:15;;;;;;;3.80;3.13;;;13.40;99.90;;;;;;5012495;28;20214;-79
2023/01/02 01:34:41;;;;;;;3.07;2.73;;;13.90;99.90;;;;;;5003381;28;20275;-79
2023/01/02 01:37:06;;;;;;;3.07;2.77;;;13.80;99.90;;;;;;5012502;28;20178;-79
2023/01/02 01:39:32;;;;;;;4.43;2.93;;;13.40;99.50;;;;;;5008705;28;20662;-79
2023/01/02 01:42:01;;;;;;;5.27;3.20;;;13.90;99.90;;;;;;5011741;28;20325;-79
2023/01/02 01:44:47;;;;;;;4.82;3.05;;;13.50;99.90;;;;;;5012059;28;20528;-79
2023/01/02 01:47:21;;;;;;;3.85;2.90;;;13.30;99.90;;;;;;5012878;28;20202;-79
2023/01/02 01:49:48;;;;;;;4.97;3.42;;;13.30;99.90;;;;;;5011908;28;20218;-79
2023/01/02 01:52:18;;;;;;;3.40;3.10;;;13.40;99.90;;;;;;5021032;28;20230;-79
2023/01/02 01:55:10;;;;;;;5.20;3.58;;;13.60;99.90;;;;;;5009316;28;20183;-79
2023/01/02 01:57:48;;;;;;;4.43;4.00;;;13.50;99.90;;;;;;5023462;28;20182;-78
2023/01/02 02:00:14;;;;;;;5.70;4.50;;;13.50;99.90;;;;;;5011724;28;20204;-80
2023/01/02 02:02:45;;;;;;;5.10;3.93;;;13.30;99.60;;;;;;5003629;28;20215;-79
2023/01/02 02:05:13;;;;;;;5.15;3.50;;;13.20;99.20;;;;;;5012005;28;20422;-79
2023/01/02 02:07:44;;;;;;;5.13;4.28;;;13.40;99.20;;;;;;5008454;28;20190;-79
2023/01/02 02:10:11;;;;;;;4.53;3.75;;;13.40;99.10;;;;;;5002161;28;20217;-79
2023/01/02 02:12:36;;;;;;;5.00;4.40;;;13.50;99.20;;;;;;5009990;28;20209;-79
2023/01/02 02:15:02;;;;;;;4.60;4.07;;;13.60;99.50;;;;;;5017525;28;20267;-79
2023/01/02 02:17:39;;;;;;;4.40;4.00;;;13.30;99.40;;;;;;5009679;28;20690;-79
2023/01/02 02:20:27;;;;;;;5.53;3.80;;;13.40;99.30;;;;;;5004457;28;20211;-79
2023/01/02 02:23:38;;;;;;;5.80;4.10;;;13.30;99.30;;;;;;5000979;28;20195;-79
2023/01/02 02:26:22;;;;;;;5.75;4.57;;;13.60;99.60;;;;;;4988222;28;20203;-79
2023/01/02 02:29:33;;;;;;;5.57;3.88;;;13.30;99.50;;;;;;5011255;28;20749;-79
2023/01/02 02:32:18;;;;;;;5.30;3.90;;;13.40;99.60;;;;;;5010384;28;20225;-79
2023/01/02 02:35:02;;;;;;;4.55;3.65;;;13.20;99.60;;;;;;5009174;28;20289;-79
2023/01/02 02:37:39;;;;;;;4.13;3.70;;;13.20;99.90;;;;;;5002491;28;20191;-79
2023/01/02 02:40:26;;;;;;;4.68;4.15;;;13.50;99.90;;;;;;5003357;28;20186;-79
2023/01/02 02:43:18;;;;;;;4.35;3.40;;;13.40;99.90;;;;;;5009780;28;20202;-79
2023/01/02 02:45:51;;;;;;;4.90;3.78;;;13.40;99.90;;;;;;5013945;28;20189;-79
2023/01/02 02:48:36;;;;;;;4.45;4.03;;;12.90;99.90;;;;;;5013476;28;20702;-79
2023/01/02 02:51:08;;;;;;;4.47;3.53;;;13.20;99.90;;;;;;5004822;28;20281;-79
2023/01/02 02:53:41;;;;;;;4.65;3.67;;;12.80;99.90;;;;;;5011146;28;20190;-79
2023/01/02 02:56:10;;;;;;;5.63;3.78;;;12.90;99.90;;;;;;5007229;28;20248;-79
2023/01/02 02:58:39;;;;;;;4.72;3.53;;;13.20;99.90;;;;;;5010721;28;20194;-79
2023/01/02 03:01:07;;;;;;;7.93;3.80;;;13.00;99.90;;;;;;5010009;28;20187;-79
2023/01/02 03:03:33;;;;;;;6.43;3.60;;;13.50;99.90;;;;;;5004480;28;20416;-79
2023/01/02 03:06:16;;;;;;;1.90;1.70;;;13.20;99.90;;;;;;5008973;28;20209;-79
2023/01/02 03:09:00;;;;;;;2.63;1.50;;;12.90;99.10;;;;;;5010528;28;20210;-79
2023/01/02 03:11:42;;;;;;;3.75;1.70;;;12.70;97.50;;;;;;4999120;28;20535;-79
2023/01/02 03:14:19;;;;;;;2.35;1.67;;;13.30;97.10;;;;;;5010885;28;20258;-79
2023/01/02 03:16:49;;;;;;;2.47;1.85;;;13.60;96.70;;;;;;5010024;28;20183;-79
2023/01/02 03:19:42;;;;;;;2.38;1.58;;;14.30;96.60;;;;;;5000914;28;20270;-78
2023/01/02 03:22:13;;;;;;;3.40;2.60;;;13.70;95.80;;;;;;5006947;28;20276;-79
2023/01/02 03:24:40;;;;;;;2.30;1.70;;;14.40;96.10;;;;;;4999853;28;20272;-78
2023/01/02 03:27:10;;;;;;;1.63;1.35;;;14.00;95.80;;;;;;5007634;28;20183;-79
2023/01/02 03:29:39;;;;;;;1.90;1.55;;;13.90;95.40;;;;;;5010412;28;20225;-78
2023/01/02 03:32:11;;;;;;;2.38;1.42;;;14.60;95.70;;;;;;5007656;28;20577;-79
2023/01/02 03:34:40;;;;;;;2.03;1.20;;;14.60;95.40;;;;;;5002805;28;20178;-78
2023/01/02 03:37:12;;;;;;;2.08;1.63;;;14.00;94.90;;;;;;5009489;28;20188;-79
2023/01/02 03:39:44;;;;;;;2.75;1.30;;;14.10;95.20;;;;;;5007268;28;20183;-79
2023/01/02 03:42:15;;;;;;;3.50;2.05;;;14.50;95.00;;;;;;5004246;28;20210;-78
2023/01/02 03:44:51;;;;;;;1.77;1.67;;;14.80;94.90;;;;;;5029797;28;20283;-78
2023/01/02 03:47:46;;;;;;;2.60;1.50;;;14.60;94.80;;;;;;5019030;28;20676;-78
2023/01/02 03:50:25;;;;;;;1.60;1.40;;;14.10;94.40;;;;;;5012090;28;20191;-79
2023/01/02 03:52:50;;;;;;;1.75;1.50;;;14.40;94.50;;;;;;5014110;28;20706;-79
2023/01/02 03:55:16;;;;;;;2.70;1.67;;;14.60;94.60;;;;;;5012448;28;20206;-79
2023/01/02 03:57:52;;;;;;;1.90;1.50;;;14.40;94.40;;;;;;5013228;28;20662;-79
2023/01/02 04:00:19;;;;;;;2.15;1.65;;;14.40;94.20;;;;;;5013578;28;20186;-79
2023/01/02 04:02:59;;;;;;;1.58;1.45;;;14.40;94.30;;;;;;5013577;28;20222;-79
2023/01/02 04:05:35;;;;;;;2.92;1.70;;;14.60;95.10;;;;;;5007477;28;20293;-79
2023/01/02 04:08:36;;;;;;;2.10;1.45;;;14.30;94.40;;;;;;5013261;28;20612;-79
2023/01/02 04:11:04;;;;;;;2.50;1.40;;;14.30;94.20;;;;;;5001315;28;20209;-79
2023/01/02 04:13:36;;;;;;;2.97;1.60;;;13.90;94.30;;;;;;5015730;28;20179;-79
2023/01/02 04:16:03;;;;;;;3.78;1.48;;;13.80;94.20;;;;;;5012085;28;20179;-79
2023/01/02 04:18:34;;;;;;;2.35;1.77;;;14.20;94.60;;;;;;5012482;28;20197;-80
2023/01/02 04:21:06;;;;;;;2.17;1.60;;;14.30;94.50;;;;;;5012718;28;20189;-79
2023/01/02 04:23:46;;;;;;;2.58;1.73;;;14.10;94.70;;;;;;5013530;28;20183;-79
2023/01/02 04:26:20;;;;;;;2.95;1.50;;;14.10;94.60;;;;;;5008468;28;20194;-79
2023/01/02 04:28:45;;;;;;;2.80;1.80;;;14.20;94.70;;;;;;5013374;28;20289;-79
2023/01/02 04:31:34;;;;;;;2.37;1.87;;;14.30;94.70;;;;;;5007755;28;21007;-79
2023/01/02 04:34:01;;;;;;;2.13;1.55;;;13.90;94.30;;;;;;5014245;28;20666;-79
2023/01/02 04:36:27;;;;;;;2.33;1.33;;;14.10;94.00;;;;;;5012813;28;20186;-79
2023/01/02 04:38:52;;;;;;;1.60;1.50;;;13.80;93.70;;;;;;5011966;28;20198;-79
2023/01/02 04:41:27;;;;;;;1.47;1.37;;;13.90;93.70;;;;;;5007183;28;20214;-79
2023/01/02 04:43:56;;;;;;;2.53;1.38;;;14.40;94.00;;;;;;5013413;28;20182;-79
2023/01/02 04:46:23;;;;;;;2.47;1.40;;;14.10;93.80;;;;;;5017140;28;20198;-79
2023/01/02 04:48:48;;;;;;;2.50;1.40;;;14.20;93.70;;;;;;5006230;28;20206;-79
2023/01/02 04:51:14;;;;;;;2.10;1.30;;;14.40;93.80;;;;;;5004150;28;20575;-79
2023/01/02 04:53:39;;;;;;;4.33;1.70;;;14.40;93.70;;;;;;5020874;28;20234;-79
2023/01/02 04:56:05;;;;;;;1.80;1.40;;;14.50;93.70;;;;;;5008792;28;20663;-79
2023/01/02 04:58:31;;;;;;;1.73;1.60;;;14.30;93.70;;;;;;5012704;28;20262;-79
2023/01/02 05:00:56;;;;;;;2.30;1.70;;;14.30;93.40;;;;;;5013370;28;20326;-79
2023/01/02 05:03:22;;;;;;;2.90;1.60;;;14.40;93.70;;;;;;5008493;28;20205;-79
2023/01/02 05:05:48;;;;;;;3.50;2.40;;;14.80;94.30;;;;;;5013092;28;20194;-79
2023/01/02 05:08:13;;;;;;;5.23;2.00;;;14.30;94.10;;;;;;5012310;28;20202;-79
2023/01/02 05:10:39;;;;;;;5.20;2.03;;;14.00;94.30;;;;;;5003503;28;20179;-78
2023/01/02 05:13:04;;;;;;;4.50;2.20;;;14.20;94.10;;;;;;5012970;28;20572;-80
2023/01/02 05:15:30;;;;;;;1.93;1.60;;;14.60;94.30;;;;;;5012563;28;20202;-79
2023/01/02 05:17:56;;;;;;;6.43;3.65;;;14.70;95.20;;;;;;5013675;28;20197;-80
2023/01/02 05:20:22;;;;;;;3.13;2.17;;;14.60;95.40;;;;;;5005453;28;20270;-80
2023/01/02 05:25:34;;;;;;;4.13;2.50;;;14.30;95.30;;;;;;5006177;28;20197;-79
2023/01/02 05:28:01;;;;;;;2.42;1.60;;;13.50;95.50;;;;;;5016658;28;20202;-79
2023/01/02 05:30:27;;;;;;;2.65;1.98;;;13.90;95.00;;;;;;5020926;28;20241;-80
2023/01/02 05:32:53;;;;;;;4.10;2.87;;;14.10;95.00;;;;;;5026805;28;20213;-80
2023/01/02 05:35:19;;;;;;;1.97;1.80;;;14.20;94.70;;;;;;5032192;28;20516;-79
2023/01/02 05:37:44;;;;;;;3.00;1.80;;;13.90;94.10;;;;;;5030174;28;20289;-80
2023/01/02 05:40:10;;;;;;;4.17;2.00;;;14.40;95.00;;;;;;5027396;28;20194;-79
2023/01/02 05:42:36;;;;;;;4.77;2.37;;;13.90;94.50;;;;;;5031393;28;20628;-79
2023/01/02 05:45:01;;;;;;;4.27;2.30;;;14.00;94.80;;;;;;5028468;28;20795;-79
2023/01/02 05:47:27;;;;;;;6.57;2.70;;;13.90;94.60;;;;;;5019314;28;20186;-79
2023/01/02 05:49:52;;;;;;;4.23;2.23;;;13.80;94.90;;;;;;5006865;28;20229;-79
2023/01/02 05:52:18;;;;;;;3.20;1.90;;;13.90;94.50;;;;;;5012152;28;20690;-79
2023/01/02 05:54:43;;;;;;;5.63;2.87;;;14.50;94.50;;;;;;5007810;28;20825;-79
2023/01/02 05:57:09;;;;;;;2.63;2.30;;;14.50;94.20;;;;;;5011309;28;20175;-79
2023/01/02 05:59:34;;;;;;;2.40;1.80;;;14.40;94.60;;;;;;5011655;28;20799;-78
2023/01/02 06:02:00;;;;;;;2.97;1.50;;;13.90;93.90;;;;;;5014397;28;20222;-80
2023/01/02 06:04:25;;;;;;;4.13;2.27;;;14.00;94.00;;;;;;5003792;28;20191;-79
2023/01/02 06:06:51;;;;;;;4.87;1.83;;;13.70;94.40;;;;;;5011339;28;20214;-79
2023/01/02 06:09:17;;;;;;;2.90;1.60;;;14.40;94.70;;;;;;5007355;28;20711;-80
2023/01/02 06:11:43;;;;;;;3.83;1.43;;;13.90;94.30;;;;;;5002953;28;20289;-79
2023/01/02 06:14:11;;;;;;;2.40;1.67;;;13.40;93.30;;;;;;5011205;28;20660;-79
2023/01/02 06:16:37;;;;;;;3.53;1.75;;;13.90;93.30;;;;;;5010846;28;20444;-79
2023/01/02 06:19:04;;;;;;;4.72;1.80;;;14.10;93.20;;;;;;5008492;28;20197;-79
2023/01/02 06:21:30;;;;;;;3.15;1.60;;;14.50;93.00;;;;;;5002375;28;20807;-80
2023/01/02 06:23:56;;;;;;;4.43;2.63;;;14.20;92.80;;;;;;5010420;28;20235;-79
2023/01/02 06:26:24;;;;;;;3.88;2.30;;;14.60;94.50;;;;;;5002554;28;20278;-79
2023/01/02 06:28:52;;;;;;;3.33;2.20;;;14.50;93.90;;;;;;5014314;28;20202;-79
2023/01/02 06:31:19;;;;;;;2.47;1.73;;;14.40;93.70;;;;;;5010759;28;20194;-79
2023/01/02 06:33:45;;;;;;;3.15;1.73;;;14.60;93.60;;;;;;5009806;28;20202;-79
2023/01/02 06:36:16;;;;;;;2.77;1.93;;;13.90;93.30;;;;;;5011643;28;20654;-79
2023/01/02 06:38:44;;;;;;;4.88;2.10;;;14.30;93.50;;;;;;5010721;28;20183;-79
2023/01/02 06:41:10;;;;;;;2.13;1.92;;;14.40;93.60;;;;;;5004275;28;20211;-79
2023/01/02 06:43:40;;;;;;;4.90;2.10;;;14.20;93.20;;;;;;5013573;28;20191;-79
2023/01/02 06:46:06;;;;;;;4.80;3.10;;;14.10;93.40;;;;;;5010742;28;20441;-79
2023/01/02 06:48:33;;;;;;;5.80;2.27;;;14.00;93.80;;;;;;5006819;28;20738;-79
2023/01/02 06:50:58;;;;;;;6.15;2.60;;;14.30;93.10;;;;;;5005226;28;20691;-79
2023/01/02 06:53:27;;;;;;;4.20;2.30;;;14.50;93.10;;;;;;5010317;28;20290;-79
2023/01/02 06:55:57;;;;;;;3.72;3.10;;;14.30;92.60;;;;;;5008115;28;20241;-79
2023/01/02 06:58:24;;;;;;;5.25;2.60;;;14.10;92.40;;;;;;5010050;28;20232;-79
2023/01/02 07:00:49;;;;;;;4.35;2.45;;;14.10;93.20;;;;;;5010216;28;20230;-79
2023/01/02 07:03:16;;;;;;;4.90;2.60;;;14.40;93.40;;;;;;5006907;28;20260;-80
2023/01/02 07:05:42;;;;;;;3.22;1.80;;;14.30;93.70;;;;;;5009321;28;20186;-79
2023/01/02 07:08:08;;;;;;;2.40;2.20;;;14.50;93.40;;;;;;5010242;28;20698;-79
2023/01/02 07:10:34;;;;;;;2.70;2.03;;;14.60;93.30;;;;;;4998551;28;20195;-79
2023/01/02 07:13:00;;;;;;;5.60;2.33;;;14.30;93.10;;;;;;5009143;28;20202;-79
2023/01/02 07:15:25;;;;;;;2.40;1.73;;;14.30;93.40;;;;;;5010250;28;20509;-79
2023/01/02 07:17:51;;;;;;;5.67;2.23;;;14.40;92.00;;;;;;5010172;28;20290;-79
2023/01/02 07:20:17;;;;;;;3.93;1.80;;;14.60;92.30;;;;;;5006864;28;20655;-79
2023/01/02 07:22:49;;;;;;;2.43;1.90;;;14.60;91.70;;;;;;5010329;28;20671;-79
2023/01/02 07:25:14;;;;;;;3.83;2.42;;;14.60;91.30;;;;;;5001968;28;20194;-79
2023/01/02 07:27:40;;;;;;;8.57;2.93;;;14.90;91.70;;;;;;5010911;28;20636;-79
2023/01/02 07:30:06;;;;;;;3.20;2.00;;;14.40;92.00;;;;;;5003647;28;20230;-79
2023/01/02 07:32:31;;;;;;;3.45;1.90;;;14.40;92.40;;;;;;5010316;28;20203;-79
2023/01/02 07:34:57;;;;;;;5.90;2.20;;;14.80;92.70;;;;;;5010465;28;20182;-79
2023/01/02 07:37:22;;;;;;;6.33;2.30;;;14.40;92.80;;;;;;5010866;28;20202;-79
2023/01/02 07:39:48;;;;;;;4.87;3.00;;;14.30;92.80;;;;;;5002986;28;20187;-79
2023/01/02 07:42:13;;;;;;;5.93;2.00;;;14.70;92.80;;;;;;5008829;28;20273;-80
2023/01/02 07:44:39;;;;;;;2.73;1.80;;;14.50;92.40;;;;;;5012613;28;20193;-80
2023/01/02 07:47:04;;;;;;;4.53;2.77;;;14.30;92.00;;;;;;5009970;28;20667;-79
2023/01/02 07:49:30;;;;;;;6.30;3.43;;;14.50;92.10;;;;;;5004978;28;20210;-78
2023/01/02 07:51:55;;;;;;;2.47;1.90;;;14.20;92.00;;;;;;5008771;28;20217;-78
2023/01/02 07:54:21;;;;;;;4.57;2.80;;;14.40;92.30;;;;;;5006842;28;20214;-78
2023/01/02 07:56:46;;;;;;;7.80;3.80;;;14.10;92.70;;;;;;5009738;28;20629;-78
2023/01/02 07:59:12;;;;;;;5.13;3.40;;;15.10;93.40;;;;;;5008640;28;20649;-78
2023/01/02 08:01:37;;;;;;;5.73;3.23;;;14.80;93.60;;;;;;5007740;28;20230;-79
2023/01/02 08:04:03;;;;;;;4.03;3.00;;;14.30;93.40;;;;;;5005317;28;20202;-78
2023/01/02 08:06:29;;;;;;;4.50;3.30;;;14.20;93.20;;;;;;5009876;28;20717;-78
2023/01/02 08:08:54;;;;;;;8.27;2.90;;;14.70;93.50;;;;;;5009387;28;20237;-77
2023/01/02 08:11:21;;;;;;;5.20;2.90;;;14.70;93.70;;;;;;5003337;28;20233;-78
2023/01/02 08:13:47;;;;;;;6.03;2.58;;;14.20;93.60;;;;;;5009902;28;20258;-78
2023/01/02 08:16:18;;;;;;;3.78;3.00;;;14.60;93.80;;;;;;5009866;28;20190;-78
2023/01/02 08:18:45;;;;;;;5.32;2.75;;;14.20;93.80;;;;;;5006806;28;20179;-80
2023/01/02 08:21:11;;;;;;;4.10;2.63;;;14.10;93.70;;;;;;5009515;28;20330;-78
2023/01/02 08:23:36;;;;;;;3.03;2.17;;;14.50;94.00;;;;;;5009356;28;20282;-78
2023/01/02 08:26:05;;;;;;;3.00;2.30;;;14.60;94.30;;;;;;5000747;28;20183;-79
2023/01/02 08:28:31;;;;;;;6.35;2.75;;;14.30;94.30;;;;;;5009697;28;20227;-78
2023/01/02 08:30:57;;;;;;;5.93;2.88;;;14.20;94.50;;;;;;5010022;28;20233;-78
2023/01/02 08:33:23;;;;;;;3.83;2.20;;;14.20;94.60;;;;;;5007352;28;20605;-79
2023/01/02 08:35:48;;;;;;;3.30;2.30;;;14.10;94.60;;;;;;5014013;28;20183;-79
2023/01/02 08:38:14;;;;;;;4.40;2.67;;;14.60;94.80;;;;;;5010159;28;20442;-80
2023/01/02 08:40:40;;;;;;;3.13;2.50;;;14.40;94.80;;;;;;5008040;28;20266;-80
2023/01/02 08:43:06;;;;;;;8.37;4.23;;;14.30;94.40;;;;;;5015793;28;20581;-80
2023/01/02 08:45:32;;;;;;;3.28;2.30;;;14.60;94.90;;;;;;5019662;28;20179;-79
2023/01/02 08:47:58;;;;;;;3.73;2.97;;;14.80;94.70;;;;;;5005358;28;20718;-80
2023/01/02 08:50:24;;;;;;;5.47;3.10;;;14.80;94.50;;;;;;5012773;28;20270;-79
2023/01/02 08:52:49;;;;;;;3.50;2.33;;;14.70;93.90;;;;;;5012420;28;20576;-80
2023/01/02 08:55:15;;;;;;;3.87;2.47;;;14.70;94.00;;;;;;5010262;28;20441;-79
2023/01/02 08:57:40;;;;;;;4.50;2.43;;;15.10;93.70;;;;;;5023971;28;20182;-79
2023/01/02 09:00:07;;;;;;;4.60;1.90;;;15.00;93.40;;;;;;5012192;28;20193;-79
2023/01/02 09:02:32;;;;;;;5.72;2.67;;;15.10;93.00;;;;;;5006304;28;20215;-79
2023/01/02 09:04:58;;;;;;;3.30;2.37;;;15.50;93.00;;;;;;5010166;28;20233;-80
2023/01/02 09:07:24;;;;;;;2.20;1.83;;;15.30;92.60;;;;;;5012086;28;20195;-79
2023/01/02 09:09:49;;;;;;;6.63;2.90;;;15.70;91.50;;;;;;5004574;28;20234;-80
2023/01/02 09:12:15;;;;;;;5.43;2.20;;;15.60;91.80;;;;;;5007984;28;20280;-80
2023/01/02 09:14:41;;;;;;;2.57;2.37;;;15.60;92.20;;;;;;5012419;28;20595;-80
2023/01/02 09:17:06;;;;;;;4.80;2.40;;;15.50;92.00;;;;;;5011869;28;20210;-80
2023/01/02 09:19:32;;;;;;;4.43;2.47;;;15.50;92.00;;;;;;5012349;28;20281;-80
2023/01/02 09:22:00;;;;;;;3.70;2.60;;;15.60;91.40;;;;;;5020298;28;20223;-79
2023/01/02 09:24:26;;;;;;;5.50;2.90;;;15.80;91.80;;;;;;5007380;28;20563;-82
2023/01/02 09:26:52;;;;;;;3.17;2.87;;;15.50;91.00;;;;;;5011010;28;20214;-79
2023/01/02 09:29:18;;;;;;;4.07;2.42;;;16.00;91.30;;;;;;5012262;28;20468;-79
2023/01/02 09:31:43;;;;;;;5.63;2.60;;;15.50;91.00;;;;;;5010600;28;20214;-80
2023/01/02 09:34:09;;;;;;;4.87;2.77;;;15.90;91.80;;;;;;5009703;28;20541;-80
2023/01/02 09:36:35;;;;;;;3.73;2.43;;;17.20;91.20;;;;;;5019092;28;20251;-78
2023/01/02 09:39:02;;;;;;;5.47;2.50;;;17.50;88.70;;;;;;5010725;28;21000;-79
2023/01/02 09:41:38;;;;;;;9.18;3.75;;;18.10;85.90;;;;;;5005883;28;20449;-79
2023/01/02 09:44:25;;;;;;;4.32;3.03;;;18.30;82.70;;;;;;5011815;28;20197;-78
2023/01/02 09:47:03;;;;;;;4.03;2.75;;;18.10;83.50;;;;;;5010231;28;20294;-78
2023/01/02 09:49:33;;;;;;;3.85;2.60;;;18.20;83.80;;;;;;5004658;28;20219;-79
2023/01/02 09:51:58;;;;;;;2.30;2.00;;;18.20;83.20;;;;;;5010579;28;20215;-79
2023/01/02 09:54:28;;;;;;;3.77;2.30;;;17.40;79.70;;;;;;5006498;28;20195;-78
2023/01/02 09:57:15;;;;;;;6.20;2.75;;;17.90;82.30;;;;;;5011303;28;20182;-79
2023/01/02 10:00:00;;;;;;;5.50;2.30;;;17.70;82.30;;;;;;5010690;28;20178;-78
2023/01/02 10:02:47;;;;;;;5.00;2.67;;;18.10;83.40;;;;;;5011345;28;20226;-78
2023/01/02 10:05:38;;;;;;;3.97;2.90;;;17.90;81.80;;;;;;5005220;28;20206;-78
2023/01/02 10:08:03;;;;;;;5.88;2.72;;;18.00;82.20;;;;;;5010987;28;20187;-78
2023/01/02 10:10:38;;;;;;;3.90;2.30;;;18.00;82.60;;;;;;4998693;28;20202;-79
2023/01/02 10:13:20;;;;;;;4.65;2.97;;;18.30;82.50;;;;;;5011460;28;20202;-79
2023/01/02 10:15:51;;;;;;;4.95;2.40;;;18.20;82.30;;;;;;4998617;28;20180;-79
2023/01/02 10:18:23;;;;;;;3.53;2.50;;;17.90;81.70;;;;;;5007421;28;20188;-79
2023/01/02 10:21:01;;;;;;;3.45;2.65;;;18.40;80.10;;;;;;5012199;28;20707;-81
2023/01/02 10:23:41;;;;;;;5.60;3.40;;;18.50;78.80;;;;;;5020085;28;20186;-78
2023/01/02 10:26:17;;;;;;;4.30;2.63;;;18.90;79.70;;;;;;5013925;28;20293;-78
2023/01/02 10:28:56;;;;;;;3.95;2.13;;;18.40;76.40;;;;;;5010909;28;20206;-78
2023/01/02 10:31:28;;;;;;;3.40;2.30;;;18.80;75.30;;;;;;5010587;28;20197;-79
2023/01/02 10:34:02;;;;;;;3.40;2.15;;;18.90;73.80;;;;;;5002609;28;20238;-78
2023/01/02 10:36:39;;;;;;;4.35;2.00;;;18.30;73.00;;;;;;5006886;28;20189;-78
2023/01/02 10:39:08;;;;;;;3.67;1.90;;;19.10;72.40;;;;;;5014185;28;20261;-78
2023/01/02 10:41:35;;;;;;;4.60;2.10;;;19.00;71.40;;;;;;5009001;28;20198;-78
2023/01/02 10:44:04;;;;;;;3.75;2.05;;;18.90;71.60;;;;;;5011794;28;20240;-78
2023/01/02 10:46:35;;;;;;;5.45;2.60;;;19.10;70.50;;;;;;5010183;28;20704;-78
2023/01/02 10:49:02;;;;;;;3.70;1.77;;;19.40;70.00;;;;;;5002550;28;20577;-79
2023/01/02 10:51:29;;;;;;;5.68;3.88;;;20.30;69.10;;;;;;5009029;28;20228;-79
2023/01/02 10:54:06;;;;;;;3.95;2.13;;;20.50;68.00;;;;;;5010280;28;20728;-79
2023/01/02 10:56:35;;;;;;;6.83;3.60;;;21.00;64.20;;;;;;5008455;28;20187;-79
2023/01/02 10:59:01;;;;;;;3.87;2.13;;;21.80;64.10;;;;;;5010363;28;21258;-79
2023/01/02 11:01:27;;;;;;;4.00;2.13;;;22.10;61.60;;;;;;5009339;28;20482;-79
2023/01/02 11:03:58;;;;;;;4.57;2.57;;;21.60;60.50;;;;;;5009487;28;20447;-79
2023/01/02 11:06:30;;;;;;;4.27;2.00;;;21.90;60.30;;;;;;4998096;28;20449;-79
2023/01/02 11:09:16;;;;;;;4.97;3.63;;;21.20;59.40;;;;;;5010302;28;20807;-79
2023/01/02 11:11:56;;;;;;;8.97;2.50;;;21.00;60.00;;;;;;5001629;28;20454;-79
2023/01/02 11:14:26;;;;;;;7.07;2.73;;;21.10;60.00;;;;;;5026756;28;20436;-78
2023/01/02 11:16:53;;;;;;;4.90;2.10;;;20.90;61.10;;;;;;5010067;28;20846;-79
2023/01/02 11:19:21;;;;;;;4.07;2.10;;;20.90;62.40;;;;;;5017011;28;21018;-79
2023/01/02 11:21:48;;;;;;;3.57;2.30;;;21.50;61.10;;;;;;5010153;28;20500;-80
2023/01/02 11:24:24;;;;;;;3.70;2.10;;;21.40;59.70;;;;;;5006933;28;20800;-79
2023/01/02 11:26:51;;;;;;;4.78;2.10;;;21.10;60.10;;;;;;5015034;28;20445;-78
2023/01/02 11:29:24;;;;;;;4.05;1.95;;;21.00;59.30;;;;;;5010374;28;20210;-78
2023/01/02 11:31:51;;;;;;;5.40;2.03;;;20.90;59.50;;;;;;5006410;28;20207;-79
2023/01/02 11:34:24;;;;;;;4.05;2.20;;;20.80;59.70;;;;;;5017298;28;20190;-79
2023/01/02 11:37:14;;;;;;;5.05;2.25;;;20.50;60.50;;;;;;5008798;28;20237;-78
2023/01/02 11:39:41;;;;;;;4.53;2.38;;;20.60;61.40;;;;;;5005782;28;20211;-79
2023/01/02 11:45:07;;;;;;;5.80;2.60;;;20.30;61.50;;;;;;5010215;28;20261;-78
2023/01/02 11:47:40;;;;;;;7.43;2.30;;;19.70;61.50;;;;;;5003782;28;20573;-78
2023/01/02 11:50:06;;;;;;;6.07;2.25;;;20.20;62.00;;;;;;5001235;28;20203;-79
2023/01/02 11:52:45;;;;;;;8.90;2.87;;;20.00;60.80;;;;;;5021733;28;20213;-79
2023/01/02 11:55:28;;;;;;;3.88;2.22;;;19.90;61.70;;;;;;4990140;28;20449;-79
2023/01/02 11:58:00;;;;;;;7.30;2.80;;;20.00;62.80;;;;;;5028113;28;20186;-79
2023/01/02 12:00:31;;;;;;;4.43;2.30;;;19.70;62.70;;;;;;5029338;28;20509;-79
2023/01/02 12:03:10;;;;;;;6.05;1.92;;;19.60;62.10;;;;;;5029101;28;20214;-78
2023/01/02 12:06:05;;;;;;;5.50;2.88;;;19.50;62.60;;;;;;5006387;28;20201;-78
2023/01/02 12:08:48;;;;;;;7.10;2.53;;;19.30;63.10;;;;;;5026901;28;20210;-78
2023/01/02 12:11:54;;;;;;;4.50;2.40;;;19.10;63.90;;;;;;5024539;28;20608;-78
2023/01/02 12:14:26;;;;;;;4.43;2.35;;;19.00;64.30;;;;;;5020542;28;20193;-78
2023/01/02 12:17:12;;;;;;;2.80;2.00;;;19.20;64.40;;;;;;5029973;28;20662;-79
2023/01/02 12:19:53;;;;;;;5.97;1.90;;;18.90;64.70;;;;;;5003183;28;20187;-79
2023/01/02 12:22:40;;;;;;;4.55;2.55;;;19.20;65.40;;;;;;5013285;28;20213;-79
2023/01/02 12:25:33;;;;;;;4.75;2.30;;;18.90;65.50;;;;;;5006809;28;20648;-79
2023/01/02 12:28:31;;;;;;;6.50;2.00;;;18.90;66.20;;;;;;5013105;28;20193;-78
2023/01/02 12:31:30;;;;;;;5.20;2.60;;;18.90;66.20;;;;;;5012639;28;20694;-79
2023/01/02 12:34:12;;;;;;;6.50;2.60;;;18.90;66.30;;;;;;5011892;28;20191;-79
2023/01/02 12:36:50;;;;;;;2.50;1.73;;;18.80;66.80;;;;;;5010602;28;20697;-79
2023/01/02 12:39:37;;;;;;;3.85;2.20;;;18.80;67.10;;;;;;5008350;28;20250;-79
2023/01/02 12:42:03;;;;;;;3.63;2.30;;;18.80;67.40;;;;;;5002925;28;20283;-79
2023/01/02 12:44:34;;;;;;;6.00;3.13;;;18.80;67.20;;;;;;5012898;28;20286;-79
2023/01/02 12:47:41;;;;;;;4.75;2.50;;;18.90;67.10;;;;;;5012768;28;20737;-79
2023/01/02 12:50:34;;;;;;;4.50;2.47;;;18.90;67.10;;;;;;5000797;28;20230;-78
2023/01/02 12:53:48;;;;;;;4.97;3.20;;;18.80;66.90;;;;;;5012290;28;20206;-79
2023/01/02 12:56:25;;;;;;;3.92;2.00;;;19.20;67.90;;;;;;4994670;28;20198;-79
2023/01/02 12:59:34;;;;;;;5.05;2.38;;;19.10;67.10;;;;;;5012658;28;20241;-79
2023/01/02 13:02:19;;;;;;;7.60;3.00;;;19.10;66.10;;;;;;5004078;28;20237;-79
2023/01/02 13:04:50;;;;;;;5.07;2.55;;;19.10;66.70;;;;;;5005733;28;20253;-79
2023/01/02 13:07:27;;;;;;;4.20;2.40;;;19.50;67.00;;;;;;5012125;28;20189;-79
2023/01/02 13:09:56;;;;;;;5.40;2.47;;;19.10;66.20;;;;;;5007833;28;20630;-79
2023/01/02 13:12:25;;;;;;;6.30;2.47;;;19.40;67.30;;;;;;5012389;28;20230;-79
2023/01/02 13:15:01;;;;;;;4.85;2.50;;;19.20;68.40;;;;;;5012047;28;20190;-79